sensor_id;sensor_type;location;lat;lon;timestamp;P1;durP1;ratioP1;P2;durP2;ratioP2
53775;SDS011;44276;49.534;6.378;2023-07-13T00:01:19;4.68;;;1.80;;
53775;SDS011;44276;49.534;6.378;2023-07-13T00:03:53;5.13;;;1.48;;
53775;SDS011;44276;49.534;6.378;2023-07-13T00:06:21;2.10;;;1.45;;
53775;SDS011;44276;49.534;6.378;2023-07-13T00:08:49;4.50;;;1.52;;
53775;SDS011;44276;49.534;6.378;2023-07-13T00:11:18;2.15;;;1.23;;
53775;SDS011;44276;49.534;6.378;2023-07-13T00:13:46;5.40;;;1.77;;
53775;SDS011;44276;49.534;6.378;2023-07-13T00:16:14;4.95;;;0.90;;
53775;SDS011;44276;49.534;6.378;2023-07-13T00:18:42;9.45;;;1.83;;
53775;SDS011;44276;49.534;6.378;2023-07-13T00:21:12;2.40;;;1.60;;
53775;SDS011;44276;49.534;6.378;2023-07-13T00:23:41;4.28;;;1.80;;
53775;SDS011;44276;49.534;6.378;2023-07-13T00:26:10;4.45;;;1.52;;
53775;SDS011;44276;49.534;6.378;2023-07-13T00:28:40;7.28;;;1.70;;
53775;SDS011;44276;49.534;6.378;2023-07-13T00:31:09;5.55;;;1.73;;
53775;SDS011;44276;49.534;6.378;2023-07-13T00:33:40;3.17;;;1.52;;
53775;SDS011;44276;49.534;6.378;2023-07-13T00:36:09;2.83;;;1.00;;
53775;SDS011;44276;49.534;6.378;2023-07-13T00:38:39;6.32;;;1.15;;
53775;SDS011;44276;49.534;6.378;2023-07-13T00:41:08;3.13;;;2.00;;
53775;SDS011;44276;49.534;6.378;2023-07-13T00:43:37;4.72;;;1.30;;
53775;SDS011;44276;49.534;6.378;2023-07-13T00:46:10;4.95;;;1.80;;
53775;SDS011;44276;49.534;6.378;2023-07-13T00:48:53;6.15;;;1.70;;
53775;SDS011;44276;49.534;6.378;2023-07-13T00:51:32;6.32;;;1.15;;
53775;SDS011;44276;49.534;6.378;2023-07-13T00:54:09;2.30;;;1.58;;
53775;SDS011;44276;49.534;6.378;2023-07-13T00:56:43;5.40;;;1.73;;
53775;SDS011;44276;49.534;6.378;2023-07-13T00:59:14;5.28;;;1.10;;
53775;SDS011;44276;49.534;6.378;2023-07-13T01:01:45;2.80;;;1.45;;
53775;SDS011;44276;49.534;6.378;2023-07-13T01:04:15;4.30;;;1.60;;
53775;SDS011;44276;49.534;6.378;2023-07-13T01:06:45;3.05;;;1.30;;
53775;SDS011;44276;49.534;6.378;2023-07-13T01:09:14;3.75;;;1.90;;
53775;SDS011;44276;49.534;6.378;2023-07-13T01:11:44;3.33;;;1.63;;
53775;SDS011;44276;49.534;6.378;2023-07-13T01:14:12;1.70;;;0.88;;
53775;SDS011;44276;49.534;6.378;2023-07-13T01:16:43;2.58;;;1.67;;
53775;SDS011;44276;49.534;6.378;2023-07-13T01:19:18;3.65;;;2.10;;
53775;SDS011;44276;49.534;6.378;2023-07-13T01:22:05;4.50;;;1.83;;
53775;SDS011;44276;49.534;6.378;2023-07-13T01:24:39;1.38;;;1.27;;
53775;SDS011;44276;49.534;6.378;2023-07-13T01:27:10;4.07;;;1.15;;
53775;SDS011;44276;49.534;6.378;2023-07-13T01:29:42;2.28;;;1.40;;
53775;SDS011;44276;49.534;6.378;2023-07-13T01:32:14;3.20;;;1.70;;
53775;SDS011;44276;49.534;6.378;2023-07-13T01:34:51;6.50;;;1.63;;
53775;SDS011;44276;49.534;6.378;2023-07-13T01:37:22;5.35;;;2.13;;
53775;SDS011;44276;49.534;6.378;2023-07-13T01:39:52;2.25;;;1.30;;
53775;SDS011;44276;49.534;6.378;2023-07-13T01:42:20;3.35;;;1.45;;
53775;SDS011;44276;49.534;6.378;2023-07-13T01:44:48;3.28;;;1.13;;
53775;SDS011;44276;49.534;6.378;2023-07-13T01:47:16;2.88;;;1.55;;
53775;SDS011;44276;49.534;6.378;2023-07-13T01:49:45;3.22;;;1.23;;
53775;SDS011;44276;49.534;6.378;2023-07-13T01:52:13;3.20;;;1.45;;
53775;SDS011;44276;49.534;6.378;2023-07-13T01:54:43;3.83;;;1.42;;
53775;SDS011;44276;49.534;6.378;2023-07-13T01:57:11;4.45;;;2.30;;
53775;SDS011;44276;49.534;6.378;2023-07-13T01:59:39;2.13;;;1.25;;
53775;SDS011;44276;49.534;6.378;2023-07-13T02:02:07;1.70;;;1.60;;
53775;SDS011;44276;49.534;6.378;2023-07-13T02:04:35;2.08;;;1.23;;
53775;SDS011;44276;49.534;6.378;2023-07-13T02:07:04;2.38;;;1.45;;
53775;SDS011;44276;49.534;6.378;2023-07-13T02:09:32;2.33;;;1.33;;
53775;SDS011;44276;49.534;6.378;2023-07-13T02:12:02;1.42;;;1.00;;
53775;SDS011;44276;49.534;6.378;2023-07-13T02:14:31;4.43;;;1.92;;
53775;SDS011;44276;49.534;6.378;2023-07-13T02:17:00;3.83;;;1.30;;
53775;SDS011;44276;49.534;6.378;2023-07-13T02:19:28;1.92;;;1.33;;
53775;SDS011;44276;49.534;6.378;2023-07-13T02:21:56;1.50;;;1.17;;
53775;SDS011;44276;49.534;6.378;2023-07-13T02:24:24;4.72;;;1.27;;
53775;SDS011;44276;49.534;6.378;2023-07-13T02:26:53;3.75;;;1.63;;
53775;SDS011;44276;49.534;6.378;2023-07-13T02:29:22;2.70;;;2.22;;
53775;SDS011;44276;49.534;6.378;2023-07-13T02:31:51;1.75;;;1.40;;
53775;SDS011;44276;49.534;6.378;2023-07-13T02:34:19;4.05;;;1.40;;
53775;SDS011;44276;49.534;6.378;2023-07-13T02:36:47;3.28;;;1.48;;
53775;SDS011;44276;49.534;6.378;2023-07-13T02:39:15;7.95;;;1.80;;
53775;SDS011;44276;49.534;6.378;2023-07-13T02:41:44;6.22;;;2.25;;
53775;SDS011;44276;49.534;6.378;2023-07-13T02:44:12;3.67;;;1.40;;
53775;SDS011;44276;49.534;6.378;2023-07-13T02:46:42;4.28;;;1.60;;
53775;SDS011;44276;49.534;6.378;2023-07-13T02:49:11;1.77;;;1.25;;
53775;SDS011;44276;49.534;6.378;2023-07-13T02:51:39;11.30;;;1.45;;
53775;SDS011;44276;49.534;6.378;2023-07-13T02:54:07;4.38;;;2.17;;
53775;SDS011;44276;49.534;6.378;2023-07-13T02:56:38;2.83;;;1.30;;
53775;SDS011;44276;49.534;6.378;2023-07-13T02:59:06;4.60;;;1.05;;
53775;SDS011;44276;49.534;6.378;2023-07-13T03:01:34;6.20;;;1.52;;
53775;SDS011;44276;49.534;6.378;2023-07-13T03:04:04;2.97;;;1.27;;
53775;SDS011;44276;49.534;6.378;2023-07-13T03:06:32;3.92;;;2.33;;
53775;SDS011;44276;49.534;6.378;2023-07-13T03:09:01;1.63;;;1.20;;
53775;SDS011;44276;49.534;6.378;2023-07-13T03:11:30;3.63;;;1.20;;
53775;SDS011;44276;49.534;6.378;2023-07-13T03:13:58;3.83;;;1.40;;
53775;SDS011;44276;49.534;6.378;2023-07-13T03:16:26;3.33;;;1.45;;
53775;SDS011;44276;49.534;6.378;2023-07-13T03:18:54;5.15;;;2.25;;
53775;SDS011;44276;49.534;6.378;2023-07-13T03:21:24;2.25;;;1.08;;
53775;SDS011;44276;49.534;6.378;2023-07-13T03:23:52;5.80;;;2.08;;
53775;SDS011;44276;49.534;6.378;2023-07-13T03:26:20;2.58;;;1.10;;
53775;SDS011;44276;49.534;6.378;2023-07-13T03:28:48;1.85;;;1.15;;
53775;SDS011;44276;49.534;6.378;2023-07-13T03:31:17;4.75;;;1.80;;
53775;SDS011;44276;49.534;6.378;2023-07-13T03:33:48;5.28;;;2.17;;
53775;SDS011;44276;49.534;6.378;2023-07-13T03:36:17;5.97;;;1.80;;
53775;SDS011;44276;49.534;6.378;2023-07-13T03:38:49;2.50;;;1.30;;
53775;SDS011;44276;49.534;6.378;2023-07-13T03:41:20;2.50;;;1.15;;
53775;SDS011;44276;49.534;6.378;2023-07-13T03:43:49;3.50;;;1.30;;
53775;SDS011;44276;49.534;6.378;2023-07-13T03:46:19;3.85;;;1.30;;
53775;SDS011;44276;49.534;6.378;2023-07-13T03:48:47;3.63;;;1.60;;
53775;SDS011;44276;49.534;6.378;2023-07-13T03:51:16;4.53;;;1.80;;
53775;SDS011;44276;49.534;6.378;2023-07-13T03:53:46;5.30;;;1.50;;
53775;SDS011;44276;49.534;6.378;2023-07-13T03:56:16;2.15;;;0.98;;
53775;SDS011;44276;49.534;6.378;2023-07-13T03:58:46;3.85;;;1.40;;
53775;SDS011;44276;49.534;6.378;2023-07-13T04:01:17;1.98;;;1.45;;
53775;SDS011;44276;49.534;6.378;2023-07-13T04:03:48;7.20;;;2.15;;
53775;SDS011;44276;49.534;6.378;2023-07-13T04:06:17;4.82;;;1.27;;
53775;SDS011;44276;49.534;6.378;2023-07-13T04:08:52;3.38;;;1.10;;
53775;SDS011;44276;49.534;6.378;2023-07-13T04:11:24;2.70;;;1.55;;
53775;SDS011;44276;49.534;6.378;2023-07-13T04:13:55;2.13;;;1.30;;
53775;SDS011;44276;49.534;6.378;2023-07-13T04:16:24;1.90;;;1.10;;
53775;SDS011;44276;49.534;6.378;2023-07-13T04:18:53;2.65;;;1.38;;
53775;SDS011;44276;49.534;6.378;2023-07-13T04:21:26;2.80;;;2.35;;
53775;SDS011;44276;49.534;6.378;2023-07-13T04:23:57;3.55;;;1.83;;
53775;SDS011;44276;49.534;6.378;2023-07-13T04:26:26;2.83;;;1.55;;
53775;SDS011;44276;49.534;6.378;2023-07-13T04:28:54;4.93;;;1.02;;
53775;SDS011;44276;49.534;6.378;2023-07-13T04:31:23;3.80;;;0.93;;
53775;SDS011;44276;49.534;6.378;2023-07-13T04:33:51;3.63;;;1.17;;
53775;SDS011;44276;49.534;6.378;2023-07-13T04:36:20;2.13;;;1.17;;
53775;SDS011;44276;49.534;6.378;2023-07-13T04:38:48;2.30;;;1.20;;
53775;SDS011;44276;49.534;6.378;2023-07-13T04:41:17;2.15;;;1.10;;
53775;SDS011;44276;49.534;6.378;2023-07-13T04:43:46;5.70;;;1.42;;
53775;SDS011;44276;49.534;6.378;2023-07-13T04:46:14;4.93;;;1.63;;
53775;SDS011;44276;49.534;6.378;2023-07-13T04:48:45;3.25;;;1.13;;
53775;SDS011;44276;49.534;6.378;2023-07-13T04:51:13;3.92;;;1.10;;
53775;SDS011;44276;49.534;6.378;2023-07-13T04:53:42;3.28;;;1.70;;
53775;SDS011;44276;49.534;6.378;2023-07-13T04:56:10;4.82;;;1.55;;
53775;SDS011;44276;49.534;6.378;2023-07-13T04:58:41;4.05;;;1.00;;
53775;SDS011;44276;49.534;6.378;2023-07-13T05:01:09;2.30;;;1.42;;
53775;SDS011;44276;49.534;6.378;2023-07-13T05:03:38;3.35;;;1.23;;
53775;SDS011;44276;49.534;6.378;2023-07-13T05:06:07;1.70;;;1.10;;
53775;SDS011;44276;49.534;6.378;2023-07-13T05:08:37;3.03;;;1.02;;
53775;SDS011;44276;49.534;6.378;2023-07-13T05:11:05;3.65;;;1.45;;
53775;SDS011;44276;49.534;6.378;2023-07-13T05:13:34;3.08;;;1.38;;
53775;SDS011;44276;49.534;6.378;2023-07-13T05:16:04;2.95;;;1.38;;
53775;SDS011;44276;49.534;6.378;2023-07-13T05:18:34;4.85;;;1.40;;
53775;SDS011;44276;49.534;6.378;2023-07-13T05:21:07;4.20;;;1.40;;
53775;SDS011;44276;49.534;6.378;2023-07-13T05:23:38;2.30;;;0.95;;
53775;SDS011;44276;49.534;6.378;2023-07-13T05:26:07;5.03;;;1.10;;
53775;SDS011;44276;49.534;6.378;2023-07-13T05:28:36;5.88;;;0.80;;
53775;SDS011;44276;49.534;6.378;2023-07-13T05:31:06;6.38;;;0.88;;
53775;SDS011;44276;49.534;6.378;2023-07-13T05:33:36;1.95;;;1.60;;
53775;SDS011;44276;49.534;6.378;2023-07-13T05:36:04;3.42;;;0.60;;
53775;SDS011;44276;49.534;6.378;2023-07-13T05:38:33;2.00;;;0.65;;
53775;SDS011;44276;49.534;6.378;2023-07-13T05:41:01;3.08;;;0.68;;
53775;SDS011;44276;49.534;6.378;2023-07-13T05:43:31;3.55;;;1.52;;
53775;SDS011;44276;49.534;6.378;2023-07-13T05:46:00;3.55;;;0.98;;
53775;SDS011;44276;49.534;6.378;2023-07-13T05:48:29;3.20;;;0.82;;
53775;SDS011;44276;49.534;6.378;2023-07-13T05:50:57;2.30;;;0.55;;
53775;SDS011;44276;49.534;6.378;2023-07-13T05:53:25;5.90;;;1.25;;
53775;SDS011;44276;49.534;6.378;2023-07-13T05:55:54;1.90;;;0.65;;
53775;SDS011;44276;49.534;6.378;2023-07-13T05:58:26;1.98;;;0.88;;
53775;SDS011;44276;49.534;6.378;2023-07-13T06:00:59;3.33;;;1.10;;
53775;SDS011;44276;49.534;6.378;2023-07-13T06:03:31;3.33;;;0.75;;
53775;SDS011;44276;49.534;6.378;2023-07-13T06:06:00;1.40;;;0.52;;
53775;SDS011;44276;49.534;6.378;2023-07-13T06:08:29;4.85;;;1.10;;
53775;SDS011;44276;49.534;6.378;2023-07-13T06:11:01;1.40;;;0.50;;
53775;SDS011;44276;49.534;6.378;2023-07-13T06:13:31;2.22;;;0.77;;
53775;SDS011;44276;49.534;6.378;2023-07-13T06:16:00;2.42;;;0.50;;
53775;SDS011;44276;49.534;6.378;2023-07-13T06:18:32;3.38;;;0.88;;
53775;SDS011;44276;49.534;6.378;2023-07-13T06:21:05;1.75;;;0.30;;
53775;SDS011;44276;49.534;6.378;2023-07-13T06:23:35;2.83;;;0.82;;
53775;SDS011;44276;49.534;6.378;2023-07-13T06:26:04;3.58;;;0.40;;
53775;SDS011;44276;49.534;6.378;2023-07-13T06:28:33;4.68;;;1.05;;
53775;SDS011;44276;49.534;6.378;2023-07-13T06:31:04;4.40;;;0.70;;
53775;SDS011;44276;49.534;6.378;2023-07-13T06:33:36;3.35;;;0.60;;
53775;SDS011;44276;49.534;6.378;2023-07-13T06:36:05;2.35;;;0.60;;
53775;SDS011;44276;49.534;6.378;2023-07-13T06:38:36;1.80;;;0.43;;
53775;SDS011;44276;49.534;6.378;2023-07-13T06:41:05;1.67;;;0.43;;
53775;SDS011;44276;49.534;6.378;2023-07-13T06:43:36;3.25;;;0.80;;
53775;SDS011;44276;49.534;6.378;2023-07-13T06:46:04;3.60;;;0.70;;
53775;SDS011;44276;49.534;6.378;2023-07-13T06:48:32;1.27;;;0.40;;
53775;SDS011;44276;49.534;6.378;2023-07-13T06:51:01;1.08;;;0.52;;
53775;SDS011;44276;49.534;6.378;2023-07-13T06:53:30;4.38;;;0.57;;
53775;SDS011;44276;49.534;6.378;2023-07-13T06:55:58;1.55;;;0.63;;
53775;SDS011;44276;49.534;6.378;2023-07-13T06:58:26;2.17;;;0.90;;
53775;SDS011;44276;49.534;6.378;2023-07-13T07:00:54;2.55;;;0.57;;
53775;SDS011;44276;49.534;6.378;2023-07-13T07:03:22;1.95;;;0.40;;
53775;SDS011;44276;49.534;6.378;2023-07-13T07:05:51;5.10;;;0.40;;
53775;SDS011;44276;49.534;6.378;2023-07-13T07:08:20;4.85;;;0.60;;
53775;SDS011;44276;49.534;6.378;2023-07-13T07:10:48;2.95;;;0.88;;
53775;SDS011;44276;49.534;6.378;2023-07-13T07:13:20;1.95;;;0.60;;
53775;SDS011;44276;49.534;6.378;2023-07-13T07:15:49;3.35;;;0.68;;
53775;SDS011;44276;49.534;6.378;2023-07-13T07:18:18;2.08;;;0.50;;
53775;SDS011;44276;49.534;6.378;2023-07-13T07:20:46;2.03;;;0.55;;
53775;SDS011;44276;49.534;6.378;2023-07-13T07:23:16;2.15;;;0.50;;
53775;SDS011;44276;49.534;6.378;2023-07-13T07:25:46;6.53;;;1.15;;
53775;SDS011;44276;49.534;6.378;2023-07-13T07:28:15;3.97;;;0.95;;
53775;SDS011;44276;49.534;6.378;2023-07-13T07:30:47;3.90;;;0.85;;
53775;SDS011;44276;49.534;6.378;2023-07-13T07:33:22;1.80;;;0.60;;
53775;SDS011;44276;49.534;6.378;2023-07-13T07:35:51;1.85;;;0.80;;
53775;SDS011;44276;49.534;6.378;2023-07-13T07:38:22;1.50;;;0.55;;
53775;SDS011;44276;49.534;6.378;2023-07-13T07:40:52;2.25;;;0.68;;
53775;SDS011;44276;49.534;6.378;2023-07-13T07:43:23;3.97;;;1.10;;
53775;SDS011;44276;49.534;6.378;2023-07-13T07:45:51;5.45;;;1.63;;
53775;SDS011;44276;49.534;6.378;2023-07-13T07:48:19;3.10;;;0.57;;
53775;SDS011;44276;49.534;6.378;2023-07-13T07:50:48;2.17;;;0.55;;
53775;SDS011;44276;49.534;6.378;2023-07-13T07:53:16;8.80;;;1.52;;
53775;SDS011;44276;49.534;6.378;2023-07-13T07:55:44;1.67;;;0.60;;
53775;SDS011;44276;49.534;6.378;2023-07-13T07:58:18;4.18;;;0.65;;
53775;SDS011;44276;49.534;6.378;2023-07-13T08:00:49;3.10;;;0.80;;
53775;SDS011;44276;49.534;6.378;2023-07-13T08:03:23;3.53;;;1.27;;
53775;SDS011;44276;49.534;6.378;2023-07-13T08:05:54;6.55;;;1.20;;
53775;SDS011;44276;49.534;6.378;2023-07-13T08:08:42;3.25;;;0.77;;
53775;SDS011;44276;49.534;6.378;2023-07-13T08:11:10;3.15;;;0.68;;
53775;SDS011;44276;49.534;6.378;2023-07-13T08:13:43;3.90;;;0.93;;
53775;SDS011;44276;49.534;6.378;2023-07-13T08:16:11;1.65;;;0.73;;
53775;SDS011;44276;49.534;6.378;2023-07-13T08:18:39;5.63;;;1.15;;
53775;SDS011;44276;49.534;6.378;2023-07-13T08:21:08;2.20;;;0.52;;
53775;SDS011;44276;49.534;6.378;2023-07-13T08:23:37;3.65;;;0.88;;
53775;SDS011;44276;49.534;6.378;2023-07-13T08:26:05;2.20;;;0.68;;
53775;SDS011;44276;49.534;6.378;2023-07-13T08:28:33;4.70;;;0.60;;
53775;SDS011;44276;49.534;6.378;2023-07-13T08:31:03;2.22;;;0.50;;
53775;SDS011;44276;49.534;6.378;2023-07-13T08:33:34;1.33;;;0.50;;
53775;SDS011;44276;49.534;6.378;2023-07-13T08:36:04;3.30;;;0.70;;
53775;SDS011;44276;49.534;6.378;2023-07-13T08:38:33;3.00;;;0.60;;
53775;SDS011;44276;49.534;6.378;2023-07-13T08:41:02;3.97;;;0.60;;
53775;SDS011;44276;49.534;6.378;2023-07-13T08:43:41;1.38;;;0.40;;
53775;SDS011;44276;49.534;6.378;2023-07-13T08:46:16;2.40;;;0.60;;
53775;SDS011;44276;49.534;6.378;2023-07-13T08:48:55;7.25;;;1.05;;
53775;SDS011;44276;49.534;6.378;2023-07-13T08:51:30;2.80;;;0.47;;
53775;SDS011;44276;49.534;6.378;2023-07-13T08:54:10;1.75;;;0.52;;
53775;SDS011;44276;49.534;6.378;2023-07-13T08:56:50;3.53;;;0.80;;
53775;SDS011;44276;49.534;6.378;2023-07-13T08:59:21;5.40;;;0.70;;
53775;SDS011;44276;49.534;6.378;2023-07-13T09:02:00;3.78;;;0.55;;
53775;SDS011;44276;49.534;6.378;2023-07-13T09:04:49;2.70;;;0.80;;
53775;SDS011;44276;49.534;6.378;2023-07-13T09:07:26;1.45;;;0.22;;
53775;SDS011;44276;49.534;6.378;2023-07-13T09:10:11;2.45;;;0.45;;
53775;SDS011;44276;49.534;6.378;2023-07-13T09:12:51;6.85;;;0.73;;
53775;SDS011;44276;49.534;6.378;2023-07-13T09:18:09;2.17;;;0.30;;
53775;SDS011;44276;49.534;6.378;2023-07-13T09:20:44;3.63;;;0.93;;
53775;SDS011;44276;49.534;6.378;2023-07-13T09:23:20;4.05;;;0.80;;
53775;SDS011;44276;49.534;6.378;2023-07-13T09:25:52;1.05;;;0.43;;
53775;SDS011;44276;49.534;6.378;2023-07-13T09:28:28;1.33;;;0.28;;
53775;SDS011;44276;49.534;6.378;2023-07-13T09:31:03;1.10;;;0.32;;
53775;SDS011;44276;49.534;6.378;2023-07-13T09:33:38;3.13;;;1.08;;
53775;SDS011;44276;49.534;6.378;2023-07-13T09:36:15;1.92;;;0.40;;
53775;SDS011;44276;49.534;6.378;2023-07-13T09:38:53;1.90;;;0.65;;
53775;SDS011;44276;49.534;6.378;2023-07-13T09:41:32;5.25;;;0.40;;
53775;SDS011;44276;49.534;6.378;2023-07-13T09:44:11;3.67;;;0.75;;
53775;SDS011;44276;49.534;6.378;2023-07-13T09:46:43;2.60;;;0.75;;
53775;SDS011;44276;49.534;6.378;2023-07-13T09:49:15;2.47;;;0.70;;
53775;SDS011;44276;49.534;6.378;2023-07-13T09:51:43;1.13;;;0.57;;
53775;SDS011;44276;49.534;6.378;2023-07-13T09:54:18;1.13;;;0.43;;
53775;SDS011;44276;49.534;6.378;2023-07-13T09:56:53;1.92;;;0.80;;
53775;SDS011;44276;49.534;6.378;2023-07-13T09:59:24;1.77;;;0.90;;
53775;SDS011;44276;49.534;6.378;2023-07-13T10:01:57;2.80;;;0.68;;
53775;SDS011;44276;49.534;6.378;2023-07-13T10:04:30;9.93;;;0.63;;
53775;SDS011;44276;49.534;6.378;2023-07-13T10:07:07;3.92;;;0.73;;
53775;SDS011;44276;49.534;6.378;2023-07-13T10:09:54;7.40;;;0.68;;
53775;SDS011;44276;49.534;6.378;2023-07-13T10:12:24;2.55;;;0.60;;
53775;SDS011;44276;49.534;6.378;2023-07-13T10:14:54;3.42;;;0.73;;
53775;SDS011;44276;49.534;6.378;2023-07-13T10:17:45;1.15;;;0.40;;
53775;SDS011;44276;49.534;6.378;2023-07-13T10:20:16;4.68;;;0.32;;
53775;SDS011;44276;49.534;6.378;2023-07-13T10:22:50;3.63;;;0.60;;
53775;SDS011;44276;49.534;6.378;2023-07-13T10:25:26;1.40;;;0.43;;
53775;SDS011;44276;49.534;6.378;2023-07-13T10:28:00;2.28;;;0.55;;
53775;SDS011;44276;49.534;6.378;2023-07-13T10:30:41;4.45;;;0.70;;
53775;SDS011;44276;49.534;6.378;2023-07-13T10:33:14;2.25;;;0.50;;
53775;SDS011;44276;49.534;6.378;2023-07-13T10:35:43;3.35;;;0.75;;
53775;SDS011;44276;49.534;6.378;2023-07-13T10:38:14;1.90;;;0.43;;
53775;SDS011;44276;49.534;6.378;2023-07-13T10:40:50;3.25;;;0.55;;
53775;SDS011;44276;49.534;6.378;2023-07-13T10:43:25;0.98;;;0.57;;
53775;SDS011;44276;49.534;6.378;2023-07-13T10:45:59;4.40;;;0.60;;
53775;SDS011;44276;49.534;6.378;2023-07-13T10:48:29;5.00;;;1.05;;
53775;SDS011;44276;49.534;6.378;2023-07-13T10:51:02;3.25;;;0.60;;
53775;SDS011;44276;49.534;6.378;2023-07-13T10:53:35;1.00;;;0.30;;
53775;SDS011;44276;49.534;6.378;2023-07-13T10:56:06;1.70;;;0.30;;
53775;SDS011;44276;49.534;6.378;2023-07-13T10:59:01;2.40;;;0.43;;
53775;SDS011;44276;49.534;6.378;2023-07-13T11:01:39;2.72;;;0.40;;
53775;SDS011;44276;49.534;6.378;2023-07-13T11:04:17;2.67;;;0.90;;
53775;SDS011;44276;49.534;6.378;2023-07-13T11:06:50;2.67;;;1.13;;
53775;SDS011;44276;49.534;6.378;2023-07-13T11:09:34;2.85;;;0.68;;
53775;SDS011;44276;49.534;6.378;2023-07-13T11:12:07;5.88;;;0.45;;
53775;SDS011;44276;49.534;6.378;2023-07-13T11:15:09;5.40;;;1.33;;
53775;SDS011;44276;49.534;6.378;2023-07-13T11:17:49;2.67;;;0.75;;
53775;SDS011;44276;49.534;6.378;2023-07-13T11:20:38;2.65;;;0.47;;
53775;SDS011;44276;49.534;6.378;2023-07-13T11:23:20;0.95;;;0.50;;
53775;SDS011;44276;49.534;6.378;2023-07-13T11:25:58;1.65;;;0.43;;
53775;SDS011;44276;49.534;6.378;2023-07-13T11:28:30;3.35;;;0.70;;
53775;SDS011;44276;49.534;6.378;2023-07-13T11:31:04;2.75;;;0.68;;
53775;SDS011;44276;49.534;6.378;2023-07-13T11:36:29;4.57;;;0.32;;
53775;SDS011;44276;49.534;6.378;2023-07-13T11:39:15;1.60;;;0.38;;
53775;SDS011;44276;49.534;6.378;2023-07-13T11:41:50;1.30;;;0.40;;
53775;SDS011;44276;49.534;6.378;2023-07-13T11:44:24;3.95;;;0.65;;
53775;SDS011;44276;49.534;6.378;2023-07-13T11:46:56;1.75;;;0.52;;
53775;SDS011;44276;49.534;6.378;2023-07-13T11:49:31;4.10;;;0.50;;
53775;SDS011;44276;49.534;6.378;2023-07-13T11:52:10;4.20;;;0.47;;
53775;SDS011;44276;49.534;6.378;2023-07-13T11:54:46;1.63;;;0.90;;
53775;SDS011;44276;49.534;6.378;2023-07-13T11:57:23;2.13;;;0.70;;
53775;SDS011;44276;49.534;6.378;2023-07-13T11:59:55;1.02;;;0.47;;
53775;SDS011;44276;49.534;6.378;2023-07-13T12:02:28;2.55;;;0.80;;
53775;SDS011;44276;49.534;6.378;2023-07-13T12:05:00;0.80;;;0.43;;
53775;SDS011;44276;49.534;6.378;2023-07-13T12:07:31;1.45;;;0.47;;
53775;SDS011;44276;49.534;6.378;2023-07-13T12:10:02;2.03;;;0.45;;
53775;SDS011;44276;49.534;6.378;2023-07-13T12:12:47;1.73;;;0.60;;
53775;SDS011;44276;49.534;6.378;2023-07-13T12:15:19;4.00;;;0.43;;
53775;SDS011;44276;49.534;6.378;2023-07-13T12:17:49;1.05;;;0.50;;
53775;SDS011;44276;49.534;6.378;2023-07-13T12:20:20;4.03;;;0.52;;
53775;SDS011;44276;49.534;6.378;2023-07-13T12:22:52;2.80;;;0.50;;
53775;SDS011;44276;49.534;6.378;2023-07-13T12:25:22;3.97;;;0.40;;
53775;SDS011;44276;49.534;6.378;2023-07-13T12:27:52;2.50;;;0.45;;
53775;SDS011;44276;49.534;6.378;2023-07-13T12:30:23;2.58;;;0.50;;
53775;SDS011;44276;49.534;6.378;2023-07-13T12:32:57;1.45;;;0.40;;
53775;SDS011;44276;49.534;6.378;2023-07-13T12:35:28;1.13;;;0.50;;
53775;SDS011;44276;49.534;6.378;2023-07-13T12:38:01;1.27;;;0.65;;
53775;SDS011;44276;49.534;6.378;2023-07-13T12:40:33;4.63;;;0.50;;
53775;SDS011;44276;49.534;6.378;2023-07-13T12:43:03;0.82;;;0.52;;
53775;SDS011;44276;49.534;6.378;2023-07-13T12:45:33;1.05;;;0.43;;
53775;SDS011;44276;49.534;6.378;2023-07-13T12:48:03;6.10;;;0.93;;
53775;SDS011;44276;49.534;6.378;2023-07-13T12:50:41;2.00;;;0.40;;
53775;SDS011;44276;49.534;6.378;2023-07-13T12:53:14;5.90;;;0.68;;
53775;SDS011;44276;49.534;6.378;2023-07-13T12:55:49;2.22;;;0.50;;
53775;SDS011;44276;49.534;6.378;2023-07-13T12:58:26;3.90;;;0.73;;
53775;SDS011;44276;49.534;6.378;2023-07-13T13:00:58;3.83;;;0.40;;
53775;SDS011;44276;49.534;6.378;2023-07-13T13:03:30;5.65;;;1.02;;
53775;SDS011;44276;49.534;6.378;2023-07-13T13:06:03;4.70;;;1.02;;
53775;SDS011;44276;49.534;6.378;2023-07-13T13:08:35;1.92;;;1.10;;
53775;SDS011;44276;49.534;6.378;2023-07-13T13:11:05;6.70;;;1.73;;
53775;SDS011;44276;49.534;6.378;2023-07-13T13:13:33;4.55;;;0.75;;
53775;SDS011;44276;49.534;6.378;2023-07-13T13:16:02;2.35;;;0.30;;
53775;SDS011;44276;49.534;6.378;2023-07-13T13:18:37;2.58;;;0.73;;
53775;SDS011;44276;49.534;6.378;2023-07-13T13:21:05;4.68;;;0.82;;
53775;SDS011;44276;49.534;6.378;2023-07-13T13:23:35;3.83;;;0.60;;
53775;SDS011;44276;49.534;6.378;2023-07-13T13:26:05;5.60;;;1.75;;
53775;SDS011;44276;49.534;6.378;2023-07-13T13:28:39;3.67;;;1.27;;
53775;SDS011;44276;49.534;6.378;2023-07-13T13:31:08;3.50;;;1.40;;
53775;SDS011;44276;49.534;6.378;2023-07-13T13:33:40;2.90;;;0.68;;
53775;SDS011;44276;49.534;6.378;2023-07-13T13:36:15;8.05;;;1.25;;
53775;SDS011;44276;49.534;6.378;2023-07-13T13:38:47;4.50;;;0.77;;
53775;SDS011;44276;49.534;6.378;2023-07-13T13:41:17;1.75;;;0.60;;
53775;SDS011;44276;49.534;6.378;2023-07-13T13:43:46;1.58;;;0.63;;
53775;SDS011;44276;49.534;6.378;2023-07-13T13:46:16;3.05;;;0.90;;
53775;SDS011;44276;49.534;6.378;2023-07-13T13:48:51;2.40;;;0.70;;
53775;SDS011;44276;49.534;6.378;2023-07-13T13:51:20;0.98;;;0.35;;
53775;SDS011;44276;49.534;6.378;2023-07-13T13:53:50;2.20;;;0.70;;
53775;SDS011;44276;49.534;6.378;2023-07-13T13:56:21;2.50;;;0.55;;
53775;SDS011;44276;49.534;6.378;2023-07-13T13:58:49;1.23;;;0.52;;
53775;SDS011;44276;49.534;6.378;2023-07-13T14:01:18;4.35;;;0.75;;
53775;SDS011;44276;49.534;6.378;2023-07-13T14:03:50;2.03;;;0.50;;
53775;SDS011;44276;49.534;6.378;2023-07-13T14:06:19;2.20;;;0.47;;
53775;SDS011;44276;49.534;6.378;2023-07-13T14:08:47;2.85;;;0.50;;
53775;SDS011;44276;49.534;6.378;2023-07-13T14:11:16;3.28;;;0.75;;
53775;SDS011;44276;49.534;6.378;2023-07-13T14:13:49;7.63;;;0.65;;
53775;SDS011;44276;49.534;6.378;2023-07-13T14:16:23;3.55;;;0.68;;
53775;SDS011;44276;49.534;6.378;2023-07-13T14:18:58;4.53;;;0.50;;
53775;SDS011;44276;49.534;6.378;2023-07-13T14:21:28;3.40;;;0.82;;
53775;SDS011;44276;49.534;6.378;2023-07-13T14:23:56;3.65;;;0.70;;
53775;SDS011;44276;49.534;6.378;2023-07-13T14:26:26;3.80;;;0.55;;
53775;SDS011;44276;49.534;6.378;2023-07-13T14:29:10;3.55;;;0.85;;
53775;SDS011;44276;49.534;6.378;2023-07-13T14:31:44;5.00;;;0.63;;
53775;SDS011;44276;49.534;6.378;2023-07-13T14:34:13;5.97;;;0.88;;
53775;SDS011;44276;49.534;6.378;2023-07-13T14:36:41;5.10;;;0.75;;
53775;SDS011;44276;49.534;6.378;2023-07-13T14:39:14;10.23;;;1.50;;
53775;SDS011;44276;49.534;6.378;2023-07-13T14:41:46;1.30;;;1.02;;
53775;SDS011;44276;49.534;6.378;2023-07-13T14:44:20;7.03;;;0.88;;
53775;SDS011;44276;49.534;6.378;2023-07-13T14:49:27;3.13;;;0.75;;
53775;SDS011;44276;49.534;6.378;2023-07-13T14:52:00;4.60;;;0.65;;
53775;SDS011;44276;49.534;6.378;2023-07-13T14:54:33;2.45;;;0.68;;
53775;SDS011;44276;49.534;6.378;2023-07-13T14:57:02;4.90;;;0.60;;
53775;SDS011;44276;49.534;6.378;2023-07-13T14:59:32;5.82;;;0.50;;
53775;SDS011;44276;49.534;6.378;2023-07-13T15:02:00;4.75;;;0.50;;
53775;SDS011;44276;49.534;6.378;2023-07-13T15:04:29;2.80;;;0.75;;
53775;SDS011;44276;49.534;6.378;2023-07-13T15:06:58;1.83;;;0.57;;
53775;SDS011;44276;49.534;6.378;2023-07-13T15:09:28;1.90;;;0.50;;
53775;SDS011;44276;49.534;6.378;2023-07-13T15:11:57;1.50;;;0.50;;
53775;SDS011;44276;49.534;6.378;2023-07-13T15:14:27;1.90;;;0.60;;
53775;SDS011;44276;49.534;6.378;2023-07-13T15:16:58;3.13;;;0.57;;
53775;SDS011;44276;49.534;6.378;2023-07-13T15:19:27;2.38;;;0.80;;
53775;SDS011;44276;49.534;6.378;2023-07-13T15:21:56;3.58;;;0.70;;